sensor_id;sensor_type;location;lat;lon;timestamp;P1;durP1;ratioP1;P2;durP2;ratioP2
65375;SDS011;51976;47.332;9.404;2023-06-22T00:00:50;11.25;;;3.60;;
65375;SDS011;51976;47.332;9.404;2023-06-22T00:03:19;8.18;;;3.28;;
65375;SDS011;51976;47.332;9.404;2023-06-22T00:05:46;10.80;;;3.70;;
65375;SDS011;51976;47.332;9.404;2023-06-22T00:08:12;11.93;;;3.00;;
65375;SDS011;51976;47.332;9.404;2023-06-22T00:10:37;9.35;;;3.35;;
65375;SDS011;51976;47.332;9.404;2023-06-22T00:13:03;9.70;;;3.65;;
65375;SDS011;51976;47.332;9.404;2023-06-22T00:15:28;7.68;;;3.33;;
65375;SDS011;51976;47.332;9.404;2023-06-22T00:17:54;11.65;;;3.38;;
65375;SDS011;51976;47.332;9.404;2023-06-22T00:20:22;10.48;;;3.60;;
65375;SDS011;51976;47.332;9.404;2023-06-22T00:22:47;8.75;;;3.50;;
65375;SDS011;51976;47.332;9.404;2023-06-22T00:25:13;7.28;;;3.05;;
65375;SDS011;51976;47.332;9.404;2023-06-22T00:27:38;13.35;;;3.55;;
65375;SDS011;51976;47.332;9.404;2023-06-22T00:30:04;12.27;;;3.72;;
65375;SDS011;51976;47.332;9.404;2023-06-22T00:32:30;10.98;;;3.13;;
65375;SDS011;51976;47.332;9.404;2023-06-22T00:34:55;7.53;;;3.15;;
65375;SDS011;51976;47.332;9.404;2023-06-22T00:37:20;8.65;;;3.45;;
65375;SDS011;51976;47.332;9.404;2023-06-22T00:39:50;9.43;;;3.15;;
65375;SDS011;51976;47.332;9.404;2023-06-22T00:42:16;12.07;;;4.10;;
65375;SDS011;51976;47.332;9.404;2023-06-22T00:44:41;9.82;;;3.63;;
65375;SDS011;51976;47.332;9.404;2023-06-22T00:47:07;9.82;;;3.92;;
65375;SDS011;51976;47.332;9.404;2023-06-22T00:49:32;8.35;;;3.25;;
65375;SDS011;51976;47.332;9.404;2023-06-22T00:51:58;8.52;;;3.30;;
65375;SDS011;51976;47.332;9.404;2023-06-22T00:54:24;7.72;;;3.40;;
65375;SDS011;51976;47.332;9.404;2023-06-22T00:56:53;9.75;;;3.33;;
65375;SDS011;51976;47.332;9.404;2023-06-22T00:59:22;8.88;;;3.78;;
65375;SDS011;51976;47.332;9.404;2023-06-22T01:01:49;14.25;;;3.20;;
65375;SDS011;51976;47.332;9.404;2023-06-22T01:04:14;8.75;;;3.60;;
65375;SDS011;51976;47.332;9.404;2023-06-22T01:06:42;8.70;;;3.03;;
65375;SDS011;51976;47.332;9.404;2023-06-22T01:09:27;7.45;;;3.22;;
65375;SDS011;51976;47.332;9.404;2023-06-22T01:11:57;10.00;;;3.00;;
65375;SDS011;51976;47.332;9.404;2023-06-22T01:14:35;9.75;;;3.50;;
65375;SDS011;51976;47.332;9.404;2023-06-22T01:17:07;10.35;;;4.35;;
65375;SDS011;51976;47.332;9.404;2023-06-22T01:19:46;10.18;;;4.07;;
65375;SDS011;51976;47.332;9.404;2023-06-22T01:22:20;10.63;;;3.67;;
65375;SDS011;51976;47.332;9.404;2023-06-22T01:24:51;8.50;;;3.33;;
65375;SDS011;51976;47.332;9.404;2023-06-22T01:27:47;8.35;;;3.35;;
65375;SDS011;51976;47.332;9.404;2023-06-22T01:30:21;9.68;;;3.92;;
65375;SDS011;51976;47.332;9.404;2023-06-22T01:32:51;10.13;;;3.38;;
65375;SDS011;51976;47.332;9.404;2023-06-22T01:35:19;11.32;;;3.78;;
65375;SDS011;51976;47.332;9.404;2023-06-22T01:37:46;10.85;;;3.45;;
65375;SDS011;51976;47.332;9.404;2023-06-22T01:40:12;8.23;;;3.80;;
65375;SDS011;51976;47.332;9.404;2023-06-22T01:42:38;8.18;;;3.25;;
65375;SDS011;51976;47.332;9.404;2023-06-22T01:45:04;11.05;;;3.70;;
65375;SDS011;51976;47.332;9.404;2023-06-22T01:47:31;6.97;;;3.80;;
65375;SDS011;51976;47.332;9.404;2023-06-22T01:49:57;7.82;;;3.67;;
65375;SDS011;51976;47.332;9.404;2023-06-22T01:52:23;11.13;;;4.35;;
65375;SDS011;51976;47.332;9.404;2023-06-22T01:54:48;8.82;;;4.28;;
65375;SDS011;51976;47.332;9.404;2023-06-22T01:57:14;8.30;;;3.70;;
65375;SDS011;51976;47.332;9.404;2023-06-22T01:59:59;8.77;;;3.42;;
65375;SDS011;51976;47.332;9.404;2023-06-22T02:02:36;11.13;;;3.70;;
65375;SDS011;51976;47.332;9.404;2023-06-22T02:05:09;9.82;;;3.97;;
65375;SDS011;51976;47.332;9.404;2023-06-22T02:07:41;12.70;;;3.97;;
65375;SDS011;51976;47.332;9.404;2023-06-22T02:10:11;11.48;;;4.25;;
65375;SDS011;51976;47.332;9.404;2023-06-22T02:12:41;8.25;;;4.32;;
65375;SDS011;51976;47.332;9.404;2023-06-22T02:15:09;13.57;;;3.65;;
65375;SDS011;51976;47.332;9.404;2023-06-22T02:17:35;11.98;;;4.22;;
65375;SDS011;51976;47.332;9.404;2023-06-22T02:20:02;8.02;;;4.00;;
65375;SDS011;51976;47.332;9.404;2023-06-22T02:22:33;13.65;;;4.38;;
65375;SDS011;51976;47.332;9.404;2023-06-22T02:24:59;13.18;;;4.70;;
65375;SDS011;51976;47.332;9.404;2023-06-22T02:27:24;9.00;;;4.15;;
65375;SDS011;51976;47.332;9.404;2023-06-22T02:29:50;11.35;;;4.57;;
65375;SDS011;51976;47.332;9.404;2023-06-22T02:32:15;9.90;;;4.43;;
65375;SDS011;51976;47.332;9.404;2023-06-22T02:34:42;10.55;;;4.90;;
65375;SDS011;51976;47.332;9.404;2023-06-22T02:37:12;8.75;;;4.20;;
65375;SDS011;51976;47.332;9.404;2023-06-22T02:39:39;11.10;;;4.88;;
65375;SDS011;51976;47.332;9.404;2023-06-22T02:42:05;10.57;;;4.50;;
65375;SDS011;51976;47.332;9.404;2023-06-22T02:44:30;8.63;;;4.10;;
65375;SDS011;51976;47.332;9.404;2023-06-22T02:46:56;9.63;;;3.83;;
65375;SDS011;51976;47.332;9.404;2023-06-22T02:49:40;10.43;;;3.97;;
65375;SDS011;51976;47.332;9.404;2023-06-22T02:52:05;7.78;;;4.68;;
65375;SDS011;51976;47.332;9.404;2023-06-22T02:54:31;8.05;;;4.20;;
65375;SDS011;51976;47.332;9.404;2023-06-22T02:56:56;12.70;;;4.85;;
65375;SDS011;51976;47.332;9.404;2023-06-22T02:59:21;10.02;;;4.80;;
65375;SDS011;51976;47.332;9.404;2023-06-22T03:01:49;9.40;;;4.40;;
65375;SDS011;51976;47.332;9.404;2023-06-22T03:04:15;10.75;;;4.57;;
65375;SDS011;51976;47.332;9.404;2023-06-22T03:06:40;10.98;;;4.18;;
65375;SDS011;51976;47.332;9.404;2023-06-22T03:09:06;13.02;;;5.30;;
65375;SDS011;51976;47.332;9.404;2023-06-22T03:11:32;10.13;;;4.70;;
65375;SDS011;51976;47.332;9.404;2023-06-22T03:13:58;11.07;;;5.32;;
65375;SDS011;51976;47.332;9.404;2023-06-22T03:16:24;13.65;;;5.07;;
65375;SDS011;51976;47.332;9.404;2023-06-22T03:18:49;12.18;;;4.05;;
65375;SDS011;51976;47.332;9.404;2023-06-22T03:21:14;14.57;;;4.20;;
65375;SDS011;51976;47.332;9.404;2023-06-22T03:23:41;11.38;;;4.63;;
65375;SDS011;51976;47.332;9.404;2023-06-22T03:26:10;10.95;;;4.82;;
65375;SDS011;51976;47.332;9.404;2023-06-22T03:28:37;11.35;;;4.93;;
65375;SDS011;51976;47.332;9.404;2023-06-22T03:31:03;11.57;;;4.43;;
65375;SDS011;51976;47.332;9.404;2023-06-22T03:33:29;9.10;;;4.13;;
65375;SDS011;51976;47.332;9.404;2023-06-22T03:35:54;8.95;;;3.58;;
65375;SDS011;51976;47.332;9.404;2023-06-22T03:38:20;15.13;;;4.82;;
65375;SDS011;51976;47.332;9.404;2023-06-22T03:40:45;8.20;;;4.03;;
65375;SDS011;51976;47.332;9.404;2023-06-22T03:43:11;8.60;;;4.40;;
65375;SDS011;51976;47.332;9.404;2023-06-22T03:45:36;11.82;;;4.30;;
65375;SDS011;51976;47.332;9.404;2023-06-22T03:48:02;9.48;;;3.83;;
65375;SDS011;51976;47.332;9.404;2023-06-22T03:50:27;8.85;;;4.55;;
65375;SDS011;51976;47.332;9.404;2023-06-22T03:52:53;10.25;;;4.15;;
65375;SDS011;51976;47.332;9.404;2023-06-22T03:55:21;8.02;;;3.95;;
65375;SDS011;51976;47.332;9.404;2023-06-22T03:57:47;7.85;;;3.85;;
65375;SDS011;51976;47.332;9.404;2023-06-22T04:00:12;9.25;;;3.80;;
65375;SDS011;51976;47.332;9.404;2023-06-22T04:02:38;9.18;;;3.92;;
65375;SDS011;51976;47.332;9.404;2023-06-22T04:05:04;12.70;;;4.22;;
65375;SDS011;51976;47.332;9.404;2023-06-22T04:07:29;11.25;;;5.05;;
65375;SDS011;51976;47.332;9.404;2023-06-22T04:09:55;14.57;;;9.40;;
65375;SDS011;51976;47.332;9.404;2023-06-22T04:12:20;12.00;;;6.55;;
65375;SDS011;51976;47.332;9.404;2023-06-22T04:14:46;12.75;;;6.30;;
65375;SDS011;51976;47.332;9.404;2023-06-22T04:17:11;12.25;;;6.70;;
65375;SDS011;51976;47.332;9.404;2023-06-22T04:19:39;10.73;;;5.13;;
65375;SDS011;51976;47.332;9.404;2023-06-22T04:22:04;10.52;;;4.82;;
65375;SDS011;51976;47.332;9.404;2023-06-22T04:24:32;11.20;;;4.68;;
65375;SDS011;51976;47.332;9.404;2023-06-22T04:26:58;6.60;;;3.83;;
65375;SDS011;51976;47.332;9.404;2023-06-22T04:29:27;9.73;;;4.03;;
65375;SDS011;51976;47.332;9.404;2023-06-22T04:31:55;12.65;;;3.95;;
65375;SDS011;51976;47.332;9.404;2023-06-22T04:34:23;10.30;;;3.90;;
65375;SDS011;51976;47.332;9.404;2023-06-22T04:36:51;13.65;;;4.32;;
65375;SDS011;51976;47.332;9.404;2023-06-22T04:39:16;9.02;;;3.40;;
65375;SDS011;51976;47.332;9.404;2023-06-22T04:41:43;11.82;;;4.05;;
65375;SDS011;51976;47.332;9.404;2023-06-22T04:44:10;8.80;;;3.83;;
65375;SDS011;51976;47.332;9.404;2023-06-22T04:46:37;14.90;;;4.00;;
65375;SDS011;51976;47.332;9.404;2023-06-22T04:49:06;8.80;;;3.90;;
65375;SDS011;51976;47.332;9.404;2023-06-22T04:51:34;11.93;;;3.78;;
65375;SDS011;51976;47.332;9.404;2023-06-22T04:54:03;16.35;;;4.20;;
65375;SDS011;51976;47.332;9.404;2023-06-22T04:56:31;14.23;;;4.57;;
65375;SDS011;51976;47.332;9.404;2023-06-22T04:58:57;9.07;;;4.40;;
65375;SDS011;51976;47.332;9.404;2023-06-22T05:01:22;11.65;;;4.05;;
65375;SDS011;51976;47.332;9.404;2023-06-22T05:03:48;12.80;;;4.15;;
65375;SDS011;51976;47.332;9.404;2023-06-22T05:06:14;37.20;;;5.68;;
65375;SDS011;51976;47.332;9.404;2023-06-22T05:08:39;17.33;;;4.50;;
65375;SDS011;51976;47.332;9.404;2023-06-22T05:11:05;10.23;;;4.40;;
65375;SDS011;51976;47.332;9.404;2023-06-22T05:13:31;7.80;;;3.80;;
65375;SDS011;51976;47.332;9.404;2023-06-22T05:15:57;13.50;;;4.97;;
65375;SDS011;51976;47.332;9.404;2023-06-22T05:18:27;14.52;;;4.70;;
65375;SDS011;51976;47.332;9.404;2023-06-22T05:20:55;12.50;;;5.00;;
65375;SDS011;51976;47.332;9.404;2023-06-22T05:23:22;16.75;;;5.57;;
65375;SDS011;51976;47.332;9.404;2023-06-22T05:25:47;17.33;;;4.60;;
65375;SDS011;51976;47.332;9.404;2023-06-22T05:28:12;19.50;;;4.80;;
65375;SDS011;51976;47.332;9.404;2023-06-22T05:30:39;12.63;;;5.15;;
65375;SDS011;51976;47.332;9.404;2023-06-22T05:33:04;10.02;;;4.50;;
65375;SDS011;51976;47.332;9.404;2023-06-22T05:35:30;19.65;;;5.85;;
65375;SDS011;51976;47.332;9.404;2023-06-22T05:37:56;17.92;;;5.25;;
65375;SDS011;51976;47.332;9.404;2023-06-22T05:40:21;11.77;;;4.63;;
65375;SDS011;51976;47.332;9.404;2023-06-22T05:42:47;12.60;;;4.93;;
65375;SDS011;51976;47.332;9.404;2023-06-22T05:45:12;12.55;;;4.63;;
65375;SDS011;51976;47.332;9.404;2023-06-22T05:47:38;13.35;;;4.55;;
65375;SDS011;51976;47.332;9.404;2023-06-22T05:50:04;15.90;;;4.43;;
65375;SDS011;51976;47.332;9.404;2023-06-22T05:52:31;14.35;;;4.82;;
65375;SDS011;51976;47.332;9.404;2023-06-22T05:54:57;24.50;;;5.82;;
65375;SDS011;51976;47.332;9.404;2023-06-22T05:57:23;11.32;;;4.50;;
65375;SDS011;51976;47.332;9.404;2023-06-22T05:59:48;12.98;;;4.18;;
65375;SDS011;51976;47.332;9.404;2023-06-22T06:02:14;18.05;;;4.78;;
65375;SDS011;51976;47.332;9.404;2023-06-22T06:04:39;13.73;;;4.57;;
65375;SDS011;51976;47.332;9.404;2023-06-22T06:07:05;11.95;;;4.18;;
65375;SDS011;51976;47.332;9.404;2023-06-22T06:09:30;18.95;;;4.75;;
65375;SDS011;51976;47.332;9.404;2023-06-22T06:11:56;9.48;;;4.32;;
65375;SDS011;51976;47.332;9.404;2023-06-22T06:14:22;12.38;;;5.30;;
65375;SDS011;51976;47.332;9.404;2023-06-22T06:16:50;9.40;;;3.97;;
65375;SDS011;51976;47.332;9.404;2023-06-22T06:19:15;14.48;;;4.45;;
65375;SDS011;51976;47.332;9.404;2023-06-22T06:21:41;20.48;;;4.85;;
65375;SDS011;51976;47.332;9.404;2023-06-22T06:24:06;16.58;;;4.85;;
65375;SDS011;51976;47.332;9.404;2023-06-22T06:26:31;10.77;;;4.32;;
65375;SDS011;51976;47.332;9.404;2023-06-22T06:28:59;12.63;;;4.10;;
65375;SDS011;51976;47.332;9.404;2023-06-22T06:31:25;11.00;;;4.35;;
65375;SDS011;51976;47.332;9.404;2023-06-22T06:33:54;12.18;;;4.68;;
65375;SDS011;51976;47.332;9.404;2023-06-22T06:36:20;12.10;;;4.30;;
65375;SDS011;51976;47.332;9.404;2023-06-22T06:38:46;11.82;;;4.20;;
65375;SDS011;51976;47.332;9.404;2023-06-22T06:41:13;15.73;;;4.32;;
65375;SDS011;51976;47.332;9.404;2023-06-22T06:43:38;13.27;;;4.28;;
65375;SDS011;51976;47.332;9.404;2023-06-22T06:46:04;13.15;;;4.55;;
65375;SDS011;51976;47.332;9.404;2023-06-22T06:48:30;8.60;;;4.30;;
65375;SDS011;51976;47.332;9.404;2023-06-22T06:50:55;12.73;;;3.88;;
65375;SDS011;51976;47.332;9.404;2023-06-22T06:53:21;11.05;;;5.32;;
65375;SDS011;51976;47.332;9.404;2023-06-22T06:55:46;10.88;;;4.47;;
65375;SDS011;51976;47.332;9.404;2023-06-22T06:58:12;8.00;;;3.92;;
65375;SDS011;51976;47.332;9.404;2023-06-22T07:00:38;13.35;;;5.10;;
65375;SDS011;51976;47.332;9.404;2023-06-22T07:03:04;5.15;;;3.92;;
65375;SDS011;51976;47.332;9.404;2023-06-22T07:05:30;9.95;;;4.28;;
65375;SDS011;51976;47.332;9.404;2023-06-22T07:07:55;10.55;;;4.82;;
65375;SDS011;51976;47.332;9.404;2023-06-22T07:10:21;8.05;;;4.53;;
65375;SDS011;51976;47.332;9.404;2023-06-22T07:12:46;9.80;;;5.30;;
65375;SDS011;51976;47.332;9.404;2023-06-22T07:15:13;9.48;;;5.15;;
65375;SDS011;51976;47.332;9.404;2023-06-22T07:17:39;9.65;;;4.80;;
65375;SDS011;51976;47.332;9.404;2023-06-22T07:20:07;11.00;;;5.20;;
65375;SDS011;51976;47.332;9.404;2023-06-22T07:22:35;16.95;;;5.45;;
65375;SDS011;51976;47.332;9.404;2023-06-22T07:25:01;11.45;;;5.35;;
65375;SDS011;51976;47.332;9.404;2023-06-22T07:27:34;11.10;;;5.57;;
65375;SDS011;51976;47.332;9.404;2023-06-22T07:30:03;10.05;;;5.40;;
65375;SDS011;51976;47.332;9.404;2023-06-22T07:32:29;13.45;;;5.85;;
65375;SDS011;51976;47.332;9.404;2023-06-22T07:34:54;11.45;;;5.13;;
65375;SDS011;51976;47.332;9.404;2023-06-22T07:37:20;8.30;;;4.88;;
65375;SDS011;51976;47.332;9.404;2023-06-22T07:39:46;9.32;;;4.65;;
65375;SDS011;51976;47.332;9.404;2023-06-22T07:42:11;10.30;;;5.75;;
65375;SDS011;51976;47.332;9.404;2023-06-22T07:44:36;20.80;;;6.53;;
65375;SDS011;51976;47.332;9.404;2023-06-22T07:47:02;13.13;;;5.55;;
65375;SDS011;51976;47.332;9.404;2023-06-22T07:49:27;15.10;;;6.10;;
65375;SDS011;51976;47.332;9.404;2023-06-22T07:51:53;16.30;;;6.55;;
65375;SDS011;51976;47.332;9.404;2023-06-22T07:54:18;9.38;;;5.63;;
65375;SDS011;51976;47.332;9.404;2023-06-22T07:56:45;16.23;;;7.00;;
65375;SDS011;51976;47.332;9.404;2023-06-22T07:59:12;16.48;;;6.05;;
65375;SDS011;51976;47.332;9.404;2023-06-22T08:01:37;11.43;;;5.65;;
65375;SDS011;51976;47.332;9.404;2023-06-22T08:04:03;16.98;;;6.53;;
65375;SDS011;51976;47.332;9.404;2023-06-22T08:06:30;15.32;;;6.63;;
65375;SDS011;51976;47.332;9.404;2023-06-22T08:08:56;11.85;;;6.32;;
65375;SDS011;51976;47.332;9.404;2023-06-22T08:11:22;13.52;;;5.97;;
65375;SDS011;51976;47.332;9.404;2023-06-22T08:13:48;13.88;;;5.63;;
65375;SDS011;51976;47.332;9.404;2023-06-22T08:16:14;18.52;;;7.55;;
65375;SDS011;51976;47.332;9.404;2023-06-22T08:18:40;13.85;;;5.90;;
65375;SDS011;51976;47.332;9.404;2023-06-22T08:21:05;10.40;;;5.35;;
65375;SDS011;51976;47.332;9.404;2023-06-22T08:23:30;17.15;;;6.78;;
65375;SDS011;51976;47.332;9.404;2023-06-22T08:25:56;21.15;;;6.72;;
65375;SDS011;51976;47.332;9.404;2023-06-22T08:28:21;17.52;;;7.28;;
65375;SDS011;51976;47.332;9.404;2023-06-22T08:30:47;15.38;;;6.88;;
65375;SDS011;51976;47.332;9.404;2023-06-22T08:33:12;16.45;;;7.50;;
65375;SDS011;51976;47.332;9.404;2023-06-22T08:35:41;15.27;;;8.23;;
65375;SDS011;51976;47.332;9.404;2023-06-22T08:38:06;25.73;;;8.07;;
65375;SDS011;51976;47.332;9.404;2023-06-22T08:40:32;15.07;;;8.80;;
65375;SDS011;51976;47.332;9.404;2023-06-22T08:42:58;13.55;;;7.60;;
65375;SDS011;51976;47.332;9.404;2023-06-22T08:45:23;13.70;;;8.95;;
65375;SDS011;51976;47.332;9.404;2023-06-22T08:47:49;12.88;;;8.35;;
65375;SDS011;51976;47.332;9.404;2023-06-22T08:50:15;12.30;;;7.70;;
65375;SDS011;51976;47.332;9.404;2023-06-22T08:52:42;14.18;;;7.82;;
65375;SDS011;51976;47.332;9.404;2023-06-22T08:55:08;14.15;;;8.38;;
65375;SDS011;51976;47.332;9.404;2023-06-22T08:57:34;23.80;;;8.15;;
65375;SDS011;51976;47.332;9.404;2023-06-22T09:00:03;15.93;;;8.93;;
65375;SDS011;51976;47.332;9.404;2023-06-22T09:02:42;13.95;;;7.68;;
65375;SDS011;51976;47.332;9.404;2023-06-22T09:05:09;16.58;;;7.60;;
65375;SDS011;51976;47.332;9.404;2023-06-22T09:07:34;17.00;;;8.60;;
65375;SDS011;51976;47.332;9.404;2023-06-22T09:10:01;13.00;;;8.13;;
65375;SDS011;51976;47.332;9.404;2023-06-22T09:12:30;14.77;;;7.15;;
65375;SDS011;51976;47.332;9.404;2023-06-22T09:14:56;11.00;;;6.60;;
65375;SDS011;51976;47.332;9.404;2023-06-22T09:17:22;13.85;;;6.55;;
65375;SDS011;51976;47.332;9.404;2023-06-22T09:19:48;12.40;;;6.18;;
65375;SDS011;51976;47.332;9.404;2023-06-22T09:22:13;11.77;;;6.10;;
65375;SDS011;51976;47.332;9.404;2023-06-22T09:24:39;15.57;;;6.57;;
65375;SDS011;51976;47.332;9.404;2023-06-22T09:27:05;9.82;;;5.28;;
65375;SDS011;51976;47.332;9.404;2023-06-22T09:29:33;12.65;;;5.65;;
65375;SDS011;51976;47.332;9.404;2023-06-22T09:31:59;11.35;;;5.40;;
65375;SDS011;51976;47.332;9.404;2023-06-22T09:34:25;13.52;;;6.20;;
65375;SDS011;51976;47.332;9.404;2023-06-22T09:36:51;11.43;;;4.82;;
65375;SDS011;51976;47.332;9.404;2023-06-22T09:39:17;9.55;;;4.70;;
65375;SDS011;51976;47.332;9.404;2023-06-22T09:41:43;15.65;;;5.80;;
65375;SDS011;51976;47.332;9.404;2023-06-22T09:44:09;10.13;;;5.03;;
65375;SDS011;51976;47.332;9.404;2023-06-22T09:46:34;15.07;;;5.70;;
65375;SDS011;51976;47.332;9.404;2023-06-22T09:49:00;14.43;;;5.35;;
65375;SDS011;51976;47.332;9.404;2023-06-22T09:51:26;11.07;;;4.00;;
65375;SDS011;51976;47.332;9.404;2023-06-22T09:53:51;15.25;;;4.43;;
65375;SDS011;51976;47.332;9.404;2023-06-22T09:56:19;14.82;;;5.40;;
65375;SDS011;51976;47.332;9.404;2023-06-22T09:58:45;12.45;;;5.18;;
65375;SDS011;51976;47.332;9.404;2023-06-22T10:01:11;11.30;;;4.82;;
65375;SDS011;51976;47.332;9.404;2023-06-22T10:03:37;10.65;;;4.25;;
65375;SDS011;51976;47.332;9.404;2023-06-22T10:06:03;11.10;;;4.90;;
65375;SDS011;51976;47.332;9.404;2023-06-22T10:08:29;14.80;;;5.78;;
65375;SDS011;51976;47.332;9.404;2023-06-22T10:10:54;17.65;;;5.40;;
65375;SDS011;51976;47.332;9.404;2023-06-22T10:13:19;13.63;;;5.40;;
65375;SDS011;51976;47.332;9.404;2023-06-22T10:15:45;13.55;;;4.85;;
65375;SDS011;51976;47.332;9.404;2023-06-22T10:18:16;10.57;;;4.85;;
65375;SDS011;51976;47.332;9.404;2023-06-22T10:20:42;11.30;;;5.30;;
65375;SDS011;51976;47.332;9.404;2023-06-22T10:23:07;13.35;;;5.00;;
65375;SDS011;51976;47.332;9.404;2023-06-22T10:25:33;9.30;;;4.75;;
65375;SDS011;51976;47.332;9.404;2023-06-22T10:27:58;14.15;;;5.32;;
65375;SDS011;51976;47.332;9.404;2023-06-22T10:30:24;14.13;;;4.47;;
65375;SDS011;51976;47.332;9.404;2023-06-22T10:32:50;13.23;;;4.63;;
65375;SDS011;51976;47.332;9.404;2023-06-22T10:35:15;11.93;;;4.60;;
65375;SDS011;51976;47.332;9.404;2023-06-22T10:37:44;13.65;;;4.68;;
65375;SDS011;51976;47.332;9.404;2023-06-22T10:40:13;9.55;;;4.05;;
65375;SDS011;51976;47.332;9.404;2023-06-22T10:42:40;12.30;;;4.75;;
65375;SDS011;51976;47.332;9.404;2023-06-22T10:45:06;14.40;;;4.00;;
65375;SDS011;51976;47.332;9.404;2023-06-22T10:47:31;12.98;;;4.40;;
65375;SDS011;51976;47.332;9.404;2023-06-22T10:49:57;9.45;;;3.83;;
65375;SDS011;51976;47.332;9.404;2023-06-22T10:52:22;13.73;;;4.07;;
65375;SDS011;51976;47.332;9.404;2023-06-22T10:54:48;13.02;;;4.18;;
65375;SDS011;51976;47.332;9.404;2023-06-22T10:57:13;10.15;;;3.03;;
65375;SDS011;51976;47.332;9.404;2023-06-22T10:59:39;16.95;;;3.83;;
65375;SDS011;51976;47.332;9.404;2023-06-22T11:02:07;11.15;;;3.50;;
65375;SDS011;51976;47.332;9.404;2023-06-22T11:04:32;10.23;;;4.10;;
65375;SDS011;51976;47.332;9.404;2023-06-22T11:06:57;16.10;;;4.32;;
65375;SDS011;51976;47.332;9.404;2023-06-22T11:09:23;12.75;;;3.75;;
65375;SDS011;51976;47.332;9.404;2023-06-22T11:11:49;10.82;;;4.00;;
65375;SDS011;51976;47.332;9.404;2023-06-22T11:14:16;14.68;;;3.70;;
65375;SDS011;51976;47.332;9.404;2023-06-22T11:16:41;13.82;;;3.47;;
65375;SDS011;51976;47.332;9.404;2023-06-22T11:19:07;18.73;;;3.72;;
65375;SDS011;51976;47.332;9.404;2023-06-22T11:21:32;16.33;;;3.53;;
65375;SDS011;51976;47.332;9.404;2023-06-22T11:23:58;11.32;;;3.53;;
65375;SDS011;51976;47.332;9.404;2023-06-22T11:26:26;13.30;;;3.92;;
65375;SDS011;51976;47.332;9.404;2023-06-22T11:28:52;16.17;;;3.78;;
65375;SDS011;51976;47.332;9.404;2023-06-22T11:31:18;9.77;;;3.50;;
65375;SDS011;51976;47.332;9.404;2023-06-22T11:33:43;14.10;;;3.75;;
65375;SDS011;51976;47.332;9.404;2023-06-22T11:36:10;12.63;;;3.95;;
65375;SDS011;51976;47.332;9.404;2023-06-22T11:38:36;15.93;;;3.90;;
65375;SDS011;51976;47.332;9.404;2023-06-22T11:41:05;17.30;;;4.10;;
65375;SDS011;51976;47.332;9.404;2023-06-22T11:43:31;14.43;;;4.40;;
65375;SDS011;51976;47.332;9.404;2023-06-22T11:45:57;16.73;;;5.03;;
65375;SDS011;51976;47.332;9.404;2023-06-22T11:48:24;15.30;;;4.43;;
65375;SDS011;51976;47.332;9.404;2023-06-22T11:50:50;11.82;;;4.18;;
65375;SDS011;51976;47.332;9.404;2023-06-22T11:53:15;11.38;;;3.65;;
65375;SDS011;51976;47.332;9.404;2023-06-22T11:55:42;12.68;;;3.40;;
65375;SDS011;51976;47.332;9.404;2023-06-22T11:58:08;12.68;;;3.65;;
65375;SDS011;51976;47.332;9.404;2023-06-22T12:00:34;11.05;;;3.30;;
65375;SDS011;51976;47.332;9.404;2023-06-22T12:02:59;14.23;;;4.00;;
65375;SDS011;51976;47.332;9.404;2023-06-22T12:05:25;13.95;;;3.20;;
65375;SDS011;51976;47.332;9.404;2023-06-22T12:07:53;16.30;;;3.97;;
65375;SDS011;51976;47.332;9.404;2023-06-22T12:10:19;13.50;;;4.43;;
65375;SDS011;51976;47.332;9.404;2023-06-22T12:12:45;21.42;;;4.53;;
65375;SDS011;51976;47.332;9.404;2023-06-22T12:15:11;14.98;;;3.33;;
65375;SDS011;51976;47.332;9.404;2023-06-22T12:17:37;11.38;;;3.50;;
65375;SDS011;51976;47.332;9.404;2023-06-22T12:20:02;27.63;;;4.60;;
65375;SDS011;51976;47.332;9.404;2023-06-22T12:22:31;13.43;;;3.67;;
65375;SDS011;51976;47.332;9.404;2023-06-22T12:24:57;14.52;;;3.38;;
65375;SDS011;51976;47.332;9.404;2023-06-22T12:27:22;12.45;;;3.08;;
65375;SDS011;51976;47.332;9.404;2023-06-22T12:29:48;10.60;;;3.85;;
65375;SDS011;51976;47.332;9.404;2023-06-22T12:32:14;14.20;;;3.63;;
65375;SDS011;51976;47.332;9.404;2023-06-22T12:34:41;11.10;;;3.53;;
65375;SDS011;51976;47.332;9.404;2023-06-22T12:37:07;18.02;;;3.97;;
65375;SDS011;51976;47.332;9.404;2023-06-22T12:39:33;13.48;;;3.80;;
65375;SDS011;51976;47.332;9.404;2023-06-22T12:41:59;12.70;;;3.65;;
65375;SDS011;51976;47.332;9.404;2023-06-22T12:44:25;16.70;;;3.63;;
65375;SDS011;51976;47.332;9.404;2023-06-22T12:46:50;11.40;;;3.35;;
65375;SDS011;51976;47.332;9.404;2023-06-22T12:49:16;15.90;;;3.75;;
65375;SDS011;51976;47.332;9.404;2023-06-22T12:51:42;19.60;;;3.50;;
65375;SDS011;51976;47.332;9.404;2023-06-22T12:54:09;14.77;;;3.75;;
65375;SDS011;51976;47.332;9.404;2023-06-22T12:56:35;12.20;;;3.80;;
65375;SDS011;51976;47.332;9.404;2023-06-22T12:59:01;15.27;;;3.50;;
65375;SDS011;51976;47.332;9.404;2023-06-22T13:01:27;14.65;;;3.58;;
65375;SDS011;51976;47.332;9.404;2023-06-22T13:03:53;10.35;;;3.00;;
65375;SDS011;51976;47.332;9.404;2023-06-22T13:06:18;12.60;;;3.75;;
65375;SDS011;51976;47.332;9.404;2023-06-22T13:08:44;13.82;;;3.35;;
65375;SDS011;51976;47.332;9.404;2023-06-22T13:11:09;12.23;;;4.03;;
65375;SDS011;51976;47.332;9.404;2023-06-22T13:13:35;13.02;;;3.50;;
65375;SDS011;51976;47.332;9.404;2023-06-22T13:16:00;9.93;;;3.38;;
65375;SDS011;51976;47.332;9.404;2023-06-22T13:18:26;16.98;;;4.07;;
65375;SDS011;51976;47.332;9.404;2023-06-22T13:20:51;12.43;;;3.33;;
65375;SDS011;51976;47.332;9.404;2023-06-22T13:23:19;16.10;;;4.07;;
65375;SDS011;51976;47.332;9.404;2023-06-22T13:25:47;12.95;;;4.72;;
65375;SDS011;51976;47.332;9.404;2023-06-22T13:28:12;13.27;;;4.22;;
65375;SDS011;51976;47.332;9.404;2023-06-22T13:30:39;10.15;;;3.53;;
65375;SDS011;51976;47.332;9.404;2023-06-22T13:33:05;15.85;;;3.83;;
65375;SDS011;51976;47.332;9.404;2023-06-22T13:35:30;12.73;;;3.78;;
65375;SDS011;51976;47.332;9.404;2023-06-22T13:37:56;12.70;;;3.53;;
65375;SDS011;51976;47.332;9.404;2023-06-22T13:40:22;15.38;;;4.10;;
65375;SDS011;51976;47.332;9.404;2023-06-22T13:42:47;11.40;;;5.28;;
65375;SDS011;51976;47.332;9.404;2023-06-22T13:45:13;14.23;;;4.28;;
65375;SDS011;51976;47.332;9.404;2023-06-22T13:47:41;16.08;;;4.10;;
65375;SDS011;51976;47.332;9.404;2023-06-22T13:50:07;11.52;;;3.60;;
65375;SDS011;51976;47.332;9.404;2023-06-22T13:52:33;11.00;;;3.95;;
65375;SDS011;51976;47.332;9.404;2023-06-22T13:54:58;14.02;;;4.72;;
65375;SDS011;51976;47.332;9.404;2023-06-22T13:57:24;13.13;;;3.63;;
65375;SDS011;51976;47.332;9.404;2023-06-22T13:59:49;15.98;;;2.75;;
65375;SDS011;51976;47.332;9.404;2023-06-22T14:02:15;13.73;;;3.75;;
65375;SDS011;51976;47.332;9.404;2023-06-22T14:04:40;13.88;;;3.28;;
65375;SDS011;51976;47.332;9.404;2023-06-22T14:07:06;8.45;;;2.85;;
65375;SDS011;51976;47.332;9.404;2023-06-22T14:09:31;11.55;;;3.33;;
65375;SDS011;51976;47.332;9.404;2023-06-22T14:11:57;11.73;;;4.20;;
65375;SDS011;51976;47.332;9.404;2023-06-22T14:14:22;13.52;;;3.40;;
65375;SDS011;51976;47.332;9.404;2023-06-22T14:16:47;13.38;;;3.50;;
65375;SDS011;51976;47.332;9.404;2023-06-22T14:19:14;18.33;;;4.32;;
65375;SDS011;51976;47.332;9.404;2023-06-22T14:21:42;14.10;;;4.00;;
65375;SDS011;51976;47.332;9.404;2023-06-22T14:24:07;13.13;;;3.60;;
65375;SDS011;51976;47.332;9.404;2023-06-22T14:26:32;11.30;;;3.22;;
65375;SDS011;51976;47.332;9.404;2023-06-22T14:28:58;9.73;;;3.40;;
65375;SDS011;51976;47.332;9.404;2023-06-22T14:31:23;15.30;;;3.60;;
65375;SDS011;51976;47.332;9.404;2023-06-22T14:33:49;16.17;;;4.05;;